CYQT

Thunder Bay Airport

Thunder Bay, , Canada
METAR CYQT 222000Z 31012G18KT 290V350 20SM FEW070 SCT100 BKN200 12/01 A2983 RMK AC1AC2CI2 SLP112
Observed Flight Rules
Oct-22 @ 20:00 UTC (48 minutes ago) Visual Flight Rules
Wind Visibility Clouds
310° at 12 knots
 Gusting to 18 knots
20 miles
  • Few at 7,000' AGL
  • Scattered at 10,000' AGL
  • Broken at 20,000' AGL
Temperatures Readings
Current 12°C / 54°F
Dewpoint 1°C / 34°F
Humidity 47%
Altimeter 29.83" Hg
Pressure 1011.2 hPa
Elevation 199
METAR CYQT 222000Z 31012G18KT 290V350 20SM FEW070 SCT100 BKN200 12/01 A2983 RMK AC1AC2CI2 SLP112
Observed Flight Rules
Oct-22 @ 20:00 UTC
(48 minutes ago)
VFR
Wind Visibility
310° at 12 knots
 Gusting to 18 knots
20 miles
Clouds
  • Few at 7,000' AGL
  • Scattered at 10,000' AGL
  • Broken at 20,000' AGL
Temperature Dewpoint
12°C / 54°F 1°C / 34°F
Humidity Altimeter Pressure
47% 29.83" Hg 1011.2 hPa